sensor_id;sensor_type;location;lat;lon;timestamp;pressure;altitude;pressure_sealevel;temperature;humidity
12757;BME280;31601;48.042;12.240;2023-04-15T00:01:03;95097.91;;;7.65;72.47
12757;BME280;31601;48.042;12.240;2023-04-15T00:03:31;95099.13;;;7.69;72.03
12757;BME280;31601;48.042;12.240;2023-04-15T00:05:58;95103.13;;;7.65;72.37
12757;BME280;31601;48.042;12.240;2023-04-15T00:08:25;95094.91;;;7.68;72.36
12757;BME280;31601;48.042;12.240;2023-04-15T00:10:52;95093.66;;;7.64;72.87
12757;BME280;31601;48.042;12.240;2023-04-15T00:13:18;95092.69;;;7.65;72.41
12757;BME280;31601;48.042;12.240;2023-04-15T00:15:45;95097.63;;;7.53;73.16
12757;BME280;31601;48.042;12.240;2023-04-15T00:18:12;95097.25;;;7.57;72.90
12757;BME280;31601;48.042;12.240;2023-04-15T00:20:39;95093.22;;;7.54;73.05
12757;BME280;31601;48.042;12.240;2023-04-15T00:23:06;95095.66;;;7.56;73.23
12757;BME280;31601;48.042;12.240;2023-04-15T00:25:32;95100.50;;;7.59;72.91
12757;BME280;31601;48.042;12.240;2023-04-15T00:27:59;95100.69;;;7.57;72.76
12757;BME280;31601;48.042;12.240;2023-04-15T00:30:25;95092.84;;;7.57;73.21
12757;BME280;31601;48.042;12.240;2023-04-15T00:32:52;95097.28;;;7.63;73.15
12757;BME280;31601;48.042;12.240;2023-04-15T00:35:18;95096.84;;;7.60;73.14
12757;BME280;31601;48.042;12.240;2023-04-15T00:37:47;95093.25;;;7.61;73.05
12757;BME280;31601;48.042;12.240;2023-04-15T00:40:16;95098.47;;;7.61;73.05
12757;BME280;31601;48.042;12.240;2023-04-15T00:42:43;95097.28;;;7.63;72.96
12757;BME280;31601;48.042;12.240;2023-04-15T00:45:10;95085.25;;;7.69;73.08
12757;BME280;31601;48.042;12.240;2023-04-15T00:47:38;95083.84;;;7.66;72.97
12757;BME280;31601;48.042;12.240;2023-04-15T00:50:07;95093.66;;;7.64;72.90
12757;BME280;31601;48.042;12.240;2023-04-15T00:52:34;95090.47;;;7.62;72.82
12757;BME280;31601;48.042;12.240;2023-04-15T00:55:02;95088.22;;;7.59;73.16
12757;BME280;31601;48.042;12.240;2023-04-15T00:57:29;95090.84;;;7.59;72.95
12757;BME280;31601;48.042;12.240;2023-04-15T00:59:56;95094.81;;;7.55;72.95
12757;BME280;31601;48.042;12.240;2023-04-15T01:02:23;95084.06;;;7.65;72.98
12757;BME280;31601;48.042;12.240;2023-04-15T01:04:49;95081.63;;;7.63;72.55
12757;BME280;31601;48.042;12.240;2023-04-15T01:07:16;95085.44;;;7.67;72.70
12757;BME280;31601;48.042;12.240;2023-04-15T01:09:42;95082.63;;;7.62;72.67
12757;BME280;31601;48.042;12.240;2023-04-15T01:12:11;95089.28;;;7.65;72.51
12757;BME280;31601;48.042;12.240;2023-04-15T01:14:39;95086.28;;;7.68;72.72
12757;BME280;31601;48.042;12.240;2023-04-15T01:17:06;95092.50;;;7.67;72.75
12757;BME280;31601;48.042;12.240;2023-04-15T01:19:33;95091.69;;;7.66;72.46
12757;BME280;31601;48.042;12.240;2023-04-15T01:22:01;95086.28;;;7.68;72.38
12757;BME280;31601;48.042;12.240;2023-04-15T01:24:29;95081.63;;;7.63;72.73
12757;BME280;31601;48.042;12.240;2023-04-15T01:26:58;95079.41;;;7.60;72.84
12757;BME280;31601;48.042;12.240;2023-04-15T01:29:25;95074.41;;;7.65;72.53
12757;BME280;31601;48.042;12.240;2023-04-15T01:31:53;95078.19;;;7.63;72.52
12757;BME280;31601;48.042;12.240;2023-04-15T01:34:20;95072.78;;;7.64;72.25
12757;BME280;31601;48.042;12.240;2023-04-15T01:36:47;95070.56;;;7.61;72.39
12757;BME280;31601;48.042;12.240;2023-04-15T01:39:13;95065.16;;;7.63;72.03
12757;BME280;31601;48.042;12.240;2023-04-15T01:41:40;95067.75;;;7.63;72.16
12757;BME280;31601;48.042;12.240;2023-04-15T01:44:08;95062.31;;;7.58;72.31
12757;BME280;31601;48.042;12.240;2023-04-15T01:46:35;95063.31;;;7.57;72.37
12757;BME280;31601;48.042;12.240;2023-04-15T01:49:02;95066.94;;;7.56;72.38
12757;BME280;31601;48.042;12.240;2023-04-15T01:51:28;95067.91;;;7.48;72.63
12757;BME280;31601;48.042;12.240;2023-04-15T01:53:54;95062.69;;;7.48;72.27
12757;BME280;31601;48.042;12.240;2023-04-15T01:56:21;95072.53;;;7.52;72.42
12757;BME280;31601;48.042;12.240;2023-04-15T01:58:49;95075.16;;;7.52;72.74
12757;BME280;31601;48.042;12.240;2023-04-15T02:01:17;95071.13;;;7.50;72.36
12757;BME280;31601;48.042;12.240;2023-04-15T02:03:44;95074.72;;;7.49;72.68
12757;BME280;31601;48.042;12.240;2023-04-15T02:06:11;95071.91;;;7.50;72.48
12757;BME280;31601;48.042;12.240;2023-04-15T02:08:38;95076.72;;;7.47;72.40
12757;BME280;31601;48.042;12.240;2023-04-15T02:11:05;95070.91;;;7.45;72.69
12757;BME280;31601;48.042;12.240;2023-04-15T02:13:31;95074.31;;;7.45;72.58
12757;BME280;31601;48.042;12.240;2023-04-15T02:15:58;95068.47;;;7.43;72.76
12757;BME280;31601;48.042;12.240;2023-04-15T02:18:25;95068.69;;;7.42;72.54
12757;BME280;31601;48.042;12.240;2023-04-15T02:20:52;95072.66;;;7.38;73.05
12757;BME280;31601;48.042;12.240;2023-04-15T02:23:19;95075.66;;;7.34;72.54
12757;BME280;31601;48.042;12.240;2023-04-15T02:25:45;95074.28;;;7.39;73.01
12757;BME280;31601;48.042;12.240;2023-04-15T02:28:12;95077.88;;;7.38;72.47
12757;BME280;31601;48.042;12.240;2023-04-15T02:30:38;95076.25;;;7.37;72.73
12757;BME280;31601;48.042;12.240;2023-04-15T02:33:05;95067.63;;;7.36;72.66
12757;BME280;31601;48.042;12.240;2023-04-15T02:35:33;95076.88;;;7.39;72.43
12757;BME280;31601;48.042;12.240;2023-04-15T02:38:03;95074.47;;;7.37;72.80
12757;BME280;31601;48.042;12.240;2023-04-15T02:40:29;95082.09;;;7.39;72.53
12757;BME280;31601;48.042;12.240;2023-04-15T02:42:56;95075.88;;;7.40;72.86
12757;BME280;31601;48.042;12.240;2023-04-15T02:45:22;95079.50;;;7.39;72.79
12757;BME280;31601;48.042;12.240;2023-04-15T02:47:51;95078.66;;;7.38;72.89
12757;BME280;31601;48.042;12.240;2023-04-15T02:50:18;95079.50;;;7.39;72.94
12757;BME280;31601;48.042;12.240;2023-04-15T02:52:46;95078.09;;;7.43;72.55
12757;BME280;31601;48.042;12.240;2023-04-15T02:55:12;95074.50;;;7.44;72.25
12757;BME280;31601;48.042;12.240;2023-04-15T02:57:39;95079.13;;;7.42;72.48
12757;BME280;31601;48.042;12.240;2023-04-15T03:00:07;95083.09;;;7.38;72.55
12757;BME280;31601;48.042;12.240;2023-04-15T03:02:36;95081.09;;;7.40;72.62
12757;BME280;31601;48.042;12.240;2023-04-15T03:05:04;95080.28;;;7.39;72.89
12757;BME280;31601;48.042;12.240;2023-04-15T03:07:31;95087.31;;;7.39;72.39
12757;BME280;31601;48.042;12.240;2023-04-15T03:09:59;95084.34;;;7.42;72.88
12757;BME280;31601;48.042;12.240;2023-04-15T03:12:25;95084.94;;;7.44;72.36
12757;BME280;31601;48.042;12.240;2023-04-15T03:14:52;95086.31;;;7.40;72.87
12757;BME280;31601;48.042;12.240;2023-04-15T03:17:18;95091.34;;;7.41;72.61
12757;BME280;31601;48.042;12.240;2023-04-15T03:19:44;95092.38;;;7.47;72.32
12757;BME280;31601;48.042;12.240;2023-04-15T03:22:11;95091.78;;;7.45;72.43
12757;BME280;31601;48.042;12.240;2023-04-15T03:24:37;95092.38;;;7.47;72.60
12757;BME280;31601;48.042;12.240;2023-04-15T03:27:05;95092.00;;;7.50;72.65
12757;BME280;31601;48.042;12.240;2023-04-15T03:29:32;95090.38;;;7.49;72.47
12757;BME280;31601;48.042;12.240;2023-04-15T03:31:58;95087.53;;;7.44;72.75
12757;BME280;31601;48.042;12.240;2023-04-15T03:34:25;95092.00;;;7.50;72.96
12757;BME280;31601;48.042;12.240;2023-04-15T03:36:51;95089.19;;;7.51;72.81
12757;BME280;31601;48.042;12.240;2023-04-15T03:39:18;95096.03;;;7.52;72.45
12757;BME280;31601;48.042;12.240;2023-04-15T03:41:44;95088.44;;;7.58;72.79
12757;BME280;31601;48.042;12.240;2023-04-15T03:44:12;95087.44;;;7.59;72.94
12757;BME280;31601;48.042;12.240;2023-04-15T03:46:38;95080.41;;;7.59;72.83
12757;BME280;31601;48.042;12.240;2023-04-15T03:49:05;95077.00;;;7.59;72.48
12757;BME280;31601;48.042;12.240;2023-04-15T03:51:32;95089.22;;;7.58;72.53
12757;BME280;31601;48.042;12.240;2023-04-15T03:53:58;95074.19;;;7.60;72.49
12757;BME280;31601;48.042;12.240;2023-04-15T03:56:26;95081.38;;;7.58;72.71
12757;BME280;31601;48.042;12.240;2023-04-15T03:58:52;95082.25;;;7.65;72.74
12757;BME280;31601;48.042;12.240;2023-04-15T04:01:21;95081.00;;;7.61;72.55
12757;BME280;31601;48.042;12.240;2023-04-15T04:03:47;95084.81;;;7.59;72.65
12757;BME280;31601;48.042;12.240;2023-04-15T04:06:14;95081.59;;;7.57;72.43
12757;BME280;31601;48.042;12.240;2023-04-15T04:08:41;95075.19;;;7.59;72.73
12757;BME280;31601;48.042;12.240;2023-04-15T04:11:07;95082.78;;;7.54;72.74
12757;BME280;31601;48.042;12.240;2023-04-15T04:13:33;95076.34;;;7.57;72.85
12757;BME280;31601;48.042;12.240;2023-04-15T04:16:00;95081.19;;;7.60;72.81
12757;BME280;31601;48.042;12.240;2023-04-15T04:18:28;95082.41;;;7.57;72.37
12757;BME280;31601;48.042;12.240;2023-04-15T04:20:54;95082.81;;;7.61;72.78
12757;BME280;31601;48.042;12.240;2023-04-15T04:23:20;95083.00;;;7.59;72.81
12757;BME280;31601;48.042;12.240;2023-04-15T04:25:47;95075.94;;;7.53;72.51
12757;BME280;31601;48.042;12.240;2023-04-15T04:28:13;95081.16;;;7.53;72.72
12757;BME280;31601;48.042;12.240;2023-04-15T04:30:40;95076.75;;;7.53;72.94
12757;BME280;31601;48.042;12.240;2023-04-15T04:33:06;95074.56;;;7.57;72.95
12757;BME280;31601;48.042;12.240;2023-04-15T04:35:34;95071.97;;;7.57;72.42
12757;BME280;31601;48.042;12.240;2023-04-15T04:38:02;95080.38;;;7.52;72.77
12757;BME280;31601;48.042;12.240;2023-04-15T04:40:28;95076.72;;;7.47;72.75
12757;BME280;31601;48.042;12.240;2023-04-15T04:42:54;95072.75;;;7.51;73.03
12757;BME280;31601;48.042;12.240;2023-04-15T04:45:21;95078.72;;;7.45;73.03
12757;BME280;31601;48.042;12.240;2023-04-15T04:47:48;95081.38;;;7.51;72.83
12757;BME280;31601;48.042;12.240;2023-04-15T04:50:14;95084.16;;;7.50;72.58
12757;BME280;31601;48.042;12.240;2023-04-15T04:52:42;95079.56;;;7.52;72.95
12757;BME280;31601;48.042;12.240;2023-04-15T04:55:08;95085.41;;;7.54;72.61
12757;BME280;31601;48.042;12.240;2023-04-15T04:57:35;95081.78;;;7.55;72.46
12757;BME280;31601;48.042;12.240;2023-04-15T05:00:02;95082.16;;;7.52;72.40
12757;BME280;31601;48.042;12.240;2023-04-15T05:02:29;95078.78;;;7.58;72.58
12757;BME280;31601;48.042;12.240;2023-04-15T05:04:56;95084.38;;;7.55;72.19
12757;BME280;31601;48.042;12.240;2023-04-15T05:07:23;95079.56;;;7.52;72.69
12757;BME280;31601;48.042;12.240;2023-04-15T05:09:51;95080.19;;;7.54;72.18
12757;BME280;31601;48.042;12.240;2023-04-15T05:12:17;95076.41;;;7.63;71.85
12757;BME280;31601;48.042;12.240;2023-04-15T05:14:44;95086.09;;;7.69;71.94
12757;BME280;31601;48.042;12.240;2023-04-15T05:17:10;95081.63;;;7.63;71.81
12757;BME280;31601;48.042;12.240;2023-04-15T05:19:37;95075.59;;;7.63;71.94
12757;BME280;31601;48.042;12.240;2023-04-15T05:22:04;95074.47;;;7.79;71.20
12757;BME280;31601;48.042;12.240;2023-04-15T05:24:30;95074.69;;;7.84;70.92
12757;BME280;31601;48.042;12.240;2023-04-15T05:26:58;95080.56;;;7.93;70.83
12757;BME280;31601;48.042;12.240;2023-04-15T05:29:26;95079.72;;;7.92;70.85
12757;BME280;31601;48.042;12.240;2023-04-15T05:31:52;95082.53;;;7.84;71.18
12757;BME280;31601;48.042;12.240;2023-04-15T05:34:18;95078.53;;;7.88;70.86
12757;BME280;31601;48.042;12.240;2023-04-15T05:36:45;95084.34;;;7.90;70.65
12757;BME280;31601;48.042;12.240;2023-04-15T05:39:11;95077.75;;;7.94;70.64
12757;BME280;31601;48.042;12.240;2023-04-15T05:41:38;95088.97;;;7.88;70.94
12757;BME280;31601;48.042;12.240;2023-04-15T05:44:07;95080.16;;;7.96;70.61
12757;BME280;31601;48.042;12.240;2023-04-15T05:46:33;95090.03;;;8.00;70.47
12757;BME280;31601;48.042;12.240;2023-04-15T05:49:00;95088.41;;;7.99;70.16
12757;BME280;31601;48.042;12.240;2023-04-15T05:51:27;95088.38;;;7.93;70.33
12757;BME280;31601;48.042;12.240;2023-04-15T05:53:53;95087.41;;;8.00;70.05
12757;BME280;31601;48.042;12.240;2023-04-15T05:56:20;95085.81;;;8.06;69.96
12757;BME280;31601;48.042;12.240;2023-04-15T05:58:46;95097.09;;;8.20;69.73
12757;BME280;31601;48.042;12.240;2023-04-15T06:01:14;95084.81;;;8.14;70.13
12757;BME280;31601;48.042;12.240;2023-04-15T06:03:41;95089.47;;;8.18;69.61
12757;BME280;31601;48.042;12.240;2023-04-15T06:06:08;95087.50;;;8.34;69.55
12757;BME280;31601;48.042;12.240;2023-04-15T06:08:34;95092.31;;;8.37;69.35
12757;BME280;31601;48.042;12.240;2023-04-15T06:11:01;95088.34;;;8.48;69.50
12757;BME280;31601;48.042;12.240;2023-04-15T06:13:27;95089.38;;;8.60;68.84
12757;BME280;31601;48.042;12.240;2023-04-15T06:15:54;95088.00;;;8.77;68.83
12757;BME280;31601;48.042;12.240;2023-04-15T06:18:22;95090.22;;;8.87;68.05
12757;BME280;31601;48.042;12.240;2023-04-15T06:20:48;95081.16;;;8.96;67.44
12757;BME280;31601;48.042;12.240;2023-04-15T06:23:15;95083.56;;;8.98;67.27
12757;BME280;31601;48.042;12.240;2023-04-15T06:25:41;95095.84;;;9.04;67.10
12757;BME280;31601;48.042;12.240;2023-04-15T06:28:07;95105.31;;;9.05;67.03
12757;BME280;31601;48.042;12.240;2023-04-15T06:30:34;95096.44;;;9.00;67.10
12757;BME280;31601;48.042;12.240;2023-04-15T06:33:01;95098.06;;;9.21;66.90
12757;BME280;31601;48.042;12.240;2023-04-15T06:35:30;95097.25;;;9.20;66.77
12757;BME280;31601;48.042;12.240;2023-04-15T06:37:57;95101.25;;;9.36;66.87
12757;BME280;31601;48.042;12.240;2023-04-15T06:40:23;95094.38;;;9.55;66.42
12757;BME280;31601;48.042;12.240;2023-04-15T06:42:50;95097.78;;;9.56;66.31
12757;BME280;31601;48.042;12.240;2023-04-15T06:45:16;95103.81;;;9.63;66.05
12757;BME280;31601;48.042;12.240;2023-04-15T06:47:43;95101.19;;;9.63;65.93
12757;BME280;31601;48.042;12.240;2023-04-15T06:50:09;95115.75;;;9.32;66.08
12757;BME280;31601;48.042;12.240;2023-04-15T06:52:37;95111.69;;;9.49;65.52
12757;BME280;31601;48.042;12.240;2023-04-15T06:55:05;95116.75;;;9.38;65.87
12757;BME280;31601;48.042;12.240;2023-04-15T06:57:32;95112.94;;;9.47;65.52
12757;BME280;31601;48.042;12.240;2023-04-15T06:59:58;95119.38;;;9.38;65.21
12757;BME280;31601;48.042;12.240;2023-04-15T07:02:25;95115.75;;;9.45;65.62
12757;BME280;31601;48.042;12.240;2023-04-15T07:04:51;95120.19;;;9.38;65.60
12757;BME280;31601;48.042;12.240;2023-04-15T07:07:18;95123.63;;;9.05;66.26
12757;BME280;31601;48.042;12.240;2023-04-15T07:09:46;95121.59;;;8.94;65.81
12757;BME280;31601;48.042;12.240;2023-04-15T07:12:12;95129.84;;;8.91;66.25
12757;BME280;31601;48.042;12.240;2023-04-15T07:14:39;95129.03;;;9.17;65.64
12757;BME280;31601;48.042;12.240;2023-04-15T07:17:05;95124.59;;;9.31;65.73
12757;BME280;31601;48.042;12.240;2023-04-15T07:19:32;95131.88;;;9.29;65.91
12757;BME280;31601;48.042;12.240;2023-04-15T07:21:58;95137.50;;;9.46;65.57
12757;BME280;31601;48.042;12.240;2023-04-15T07:24:25;95136.69;;;9.32;65.52
12757;BME280;31601;48.042;12.240;2023-04-15T07:26:53;95134.44;;;9.56;65.25
12757;BME280;31601;48.042;12.240;2023-04-15T07:29:20;95140.75;;;9.14;64.81
12757;BME280;31601;48.042;12.240;2023-04-15T07:31:46;95137.91;;;9.36;65.21
12757;BME280;31601;48.042;12.240;2023-04-15T07:34:13;95141.13;;;9.31;64.46
12757;BME280;31601;48.042;12.240;2023-04-15T07:36:40;95137.72;;;9.38;64.29
12757;BME280;31601;48.042;12.240;2023-04-15T07:39:07;95138.69;;;9.43;64.30
12757;BME280;31601;48.042;12.240;2023-04-15T07:41:33;95145.13;;;9.61;64.48
12757;BME280;31601;48.042;12.240;2023-04-15T07:44:01;95150.13;;;9.69;64.88
12757;BME280;31601;48.042;12.240;2023-04-15T07:46:28;95145.09;;;9.74;64.19
12757;BME280;31601;48.042;12.240;2023-04-15T07:48:54;95150.94;;;9.70;64.56
12757;BME280;31601;48.042;12.240;2023-04-15T07:51:21;95148.34;;;9.49;64.51
12757;BME280;31601;48.042;12.240;2023-04-15T07:53:48;95154.22;;;9.52;64.39
12757;BME280;31601;48.042;12.240;2023-04-15T07:56:14;95151.56;;;9.45;64.55
12757;BME280;31601;48.042;12.240;2023-04-15T07:58:41;95152.94;;;9.81;64.49
12757;BME280;31601;48.042;12.240;2023-04-15T08:01:09;95152.75;;;9.82;64.57
12757;BME280;31601;48.042;12.240;2023-04-15T08:03:35;95157.09;;;10.02;63.50
12757;BME280;31601;48.042;12.240;2023-04-15T08:06:02;95155.44;;;10.14;63.91
12757;BME280;31601;48.042;12.240;2023-04-15T08:08:29;95147.91;;;10.45;63.59
12757;BME280;31601;48.042;12.240;2023-04-15T08:10:55;95148.47;;;10.53;63.30
12757;BME280;31601;48.042;12.240;2023-04-15T08:13:22;95148.97;;;10.69;62.88
12757;BME280;31601;48.042;12.240;2023-04-15T08:16:12;95151.34;;;10.77;62.72
12757;BME280;31601;48.042;12.240;2023-04-15T08:18:40;95149.75;;;11.01;62.48
12757;BME280;31601;48.042;12.240;2023-04-15T08:21:06;95151.03;;;10.92;61.68
12757;BME280;31601;48.042;12.240;2023-04-15T08:23:33;95155.94;;;11.14;60.78
12757;BME280;31601;48.042;12.240;2023-04-15T08:25:59;95158.03;;;11.30;60.85
12757;BME280;31601;48.042;12.240;2023-04-15T08:28:26;95157.63;;;11.33;59.94
12757;BME280;31601;48.042;12.240;2023-04-15T08:30:52;95160.25;;;11.33;60.19
12757;BME280;31601;48.042;12.240;2023-04-15T08:33:19;95162.75;;;11.21;60.06
12757;BME280;31601;48.042;12.240;2023-04-15T08:35:47;95164.63;;;11.14;60.48
12757;BME280;31601;48.042;12.240;2023-04-15T08:38:13;95168.28;;;11.13;59.90
12757;BME280;31601;48.042;12.240;2023-04-15T08:40:41;95165.31;;;11.03;59.99
12757;BME280;31601;48.042;12.240;2023-04-15T08:43:09;95168.28;;;11.13;59.77
12757;BME280;31601;48.042;12.240;2023-04-15T08:45:38;95165.91;;;11.05;59.71
12757;BME280;31601;48.042;12.240;2023-04-15T08:48:05;95170.41;;;10.98;60.24
12757;BME280;31601;48.042;12.240;2023-04-15T08:50:33;95165.91;;;11.05;60.26
12757;BME280;31601;48.042;12.240;2023-04-15T08:53:01;95174.88;;;10.90;60.40
12757;BME280;31601;48.042;12.240;2023-04-15T08:55:29;95175.19;;;10.69;60.18
12757;BME280;31601;48.042;12.240;2023-04-15T08:57:58;95174.44;;;10.62;60.35
12757;BME280;31601;48.042;12.240;2023-04-15T09:00:26;95175.81;;;10.64;60.25
12757;BME280;31601;48.042;12.240;2023-04-15T09:02:53;95175.31;;;10.49;60.25
12757;BME280;31601;48.042;12.240;2023-04-15T09:05:21;95183.53;;;10.59;60.81
12757;BME280;31601;48.042;12.240;2023-04-15T09:07:47;95176.97;;;10.75;60.65
12757;BME280;31601;48.042;12.240;2023-04-15T09:10:17;95177.59;;;10.77;60.71
12757;BME280;31601;48.042;12.240;2023-04-15T09:12:43;95176.50;;;10.91;61.06
12757;BME280;31601;48.042;12.240;2023-04-15T09:15:10;95172.66;;;10.94;61.20
12757;BME280;31601;48.042;12.240;2023-04-15T09:17:41;95172.94;;;11.11;60.76
12757;BME280;31601;48.042;12.240;2023-04-15T09:20:09;95175.13;;;11.14;60.65
12757;BME280;31601;48.042;12.240;2023-04-15T09:22:37;95178.34;;;11.16;60.44
12757;BME280;31601;48.042;12.240;2023-04-15T09:25:25;95177.63;;;11.27;60.12
12757;BME280;31601;48.042;12.240;2023-04-15T09:27:53;95176.63;;;11.28;60.24
12757;BME280;31601;48.042;12.240;2023-04-15T09:30:20;95175.88;;;11.21;59.97
12757;BME280;31601;48.042;12.240;2023-04-15T09:32:48;95179.19;;;11.10;60.10
12757;BME280;31601;48.042;12.240;2023-04-15T09:35:15;95181.44;;;11.06;60.34
12757;BME280;31601;48.042;12.240;2023-04-15T09:37:42;95186.69;;;11.06;60.87
12757;BME280;31601;48.042;12.240;2023-04-15T09:40:09;95183.09;;;11.01;61.14
12757;BME280;31601;48.042;12.240;2023-04-15T09:42:53;95190.63;;;10.90;61.46
12757;BME280;31601;48.042;12.240;2023-04-15T09:45:21;95194.28;;;10.89;61.47
12757;BME280;31601;48.042;12.240;2023-04-15T09:47:47;95192.22;;;10.91;61.56
12757;BME280;31601;48.042;12.240;2023-04-15T09:50:15;95194.66;;;10.93;61.62
12757;BME280;31601;48.042;12.240;2023-04-15T09:52:43;95188.19;;;10.96;60.79
12757;BME280;31601;48.042;12.240;2023-04-15T09:55:10;95193.81;;;10.99;60.59
12757;BME280;31601;48.042;12.240;2023-04-15T09:57:39;95194.81;;;10.98;60.55
12757;BME280;31601;48.042;12.240;2023-04-15T10:00:07;95192.81;;;10.93;60.22
12757;BME280;31601;48.042;12.240;2023-04-15T10:02:36;95184.91;;;11.00;60.44
12757;BME280;31601;48.042;12.240;2023-04-15T10:05:03;95185.75;;;10.94;60.34
12757;BME280;31601;48.042;12.240;2023-04-15T10:07:31;95185.94;;;10.99;60.20
12757;BME280;31601;48.042;12.240;2023-04-15T10:09:58;95189.13;;;11.01;60.28
12757;BME280;31601;48.042;12.240;2023-04-15T10:12:27;95187.84;;;11.17;60.65
12757;BME280;31601;48.042;12.240;2023-04-15T10:14:58;95182.16;;;11.20;60.16
12757;BME280;31601;48.042;12.240;2023-04-15T10:17:26;95188.13;;;11.34;59.90
12757;BME280;31601;48.042;12.240;2023-04-15T10:19:53;95187.03;;;11.42;60.03
12757;BME280;31601;48.042;12.240;2023-04-15T10:22:21;95192.72;;;11.39;60.30
12757;BME280;31601;48.042;12.240;2023-04-15T10:24:48;95183.50;;;11.29;60.47
12757;BME280;31601;48.042;12.240;2023-04-15T10:27:16;95190.91;;;11.39;60.08
12757;BME280;31601;48.042;12.240;2023-04-15T10:29:42;95198.13;;;11.44;59.92
12757;BME280;31601;48.042;12.240;2023-04-15T10:32:11;95198.94;;;11.44;60.07
12757;BME280;31601;48.042;12.240;2023-04-15T10:34:39;95204.19;;;11.44;60.19
12757;BME280;31601;48.042;12.240;2023-04-15T10:37:08;95208.28;;;11.40;60.25
12757;BME280;31601;48.042;12.240;2023-04-15T10:39:40;95205.84;;;11.39;60.50
12757;BME280;31601;48.042;12.240;2023-04-15T10:42:08;95211.69;;;11.41;60.54
12757;BME280;31601;48.042;12.240;2023-04-15T10:44:35;95206.28;;;11.36;60.12
12757;BME280;31601;48.042;12.240;2023-04-15T10:47:08;95203.66;;;11.36;60.43
12757;BME280;31601;48.042;12.240;2023-04-15T10:49:42;95200.28;;;11.28;60.08
12757;BME280;31601;48.042;12.240;2023-04-15T10:52:09;95208.13;;;11.28;60.20
12757;BME280;31601;48.042;12.240;2023-04-15T10:54:36;95201.88;;;11.29;60.44
12757;BME280;31601;48.042;12.240;2023-04-15T10:57:08;95200.38;;;11.40;60.06
12757;BME280;31601;48.042;12.240;2023-04-15T10:59:35;95201.75;;;11.43;60.13
12757;BME280;31601;48.042;12.240;2023-04-15T11:02:04;95199.56;;;11.40;60.22
12757;BME280;31601;48.042;12.240;2023-04-15T11:04:51;95196.78;;;11.35;60.21
12757;BME280;31601;48.042;12.240;2023-04-15T11:07:52;95192.53;;;11.34;60.57
12757;BME280;31601;48.042;12.240;2023-04-15T11:10:49;95197.38;;;11.37;60.58
12757;BME280;31601;48.042;12.240;2023-04-15T11:13:24;95191.03;;;11.44;60.44
12757;BME280;31601;48.042;12.240;2023-04-15T11:15:59;95193.25;;;11.47;60.11
12757;BME280;31601;48.042;12.240;2023-04-15T11:18:31;95199.69;;;11.52;59.95
12757;BME280;31601;48.042;12.240;2023-04-15T11:21:03;95204.28;;;11.56;60.15
12757;BME280;31601;48.042;12.240;2023-04-15T11:23:31;95194.97;;;11.60;60.19
12757;BME280;31601;48.042;12.240;2023-04-15T11:25:59;95201.09;;;11.54;60.59
12757;BME280;31601;48.042;12.240;2023-04-15T11:28:27;95196.63;;;11.55;61.13
12757;BME280;31601;48.042;12.240;2023-04-15T11:30:54;95206.97;;;11.50;61.03
12757;BME280;31601;48.042;12.240;2023-04-15T11:33:22;95197.75;;;11.40;61.45
12757;BME280;31601;48.042;12.240;2023-04-15T11:35:49;95208.84;;;11.42;61.53
12757;BME280;31601;48.042;12.240;2023-04-15T11:38:18;95208.91;;;11.36;61.74
12757;BME280;31601;48.042;12.240;2023-04-15T11:40:46;95215.44;;;11.26;61.69
12757;BME280;31601;48.042;12.240;2023-04-15T11:43:15;95206.53;;;11.27;61.23
12757;BME280;31601;48.042;12.240;2023-04-15T11:45:52;95205.38;;;11.23;61.51
12757;BME280;31601;48.042;12.240;2023-04-15T11:48:21;95206.03;;;11.12;62.04
12757;BME280;31601;48.042;12.240;2023-04-15T11:50:52;95211.28;;;11.12;62.42
12757;BME280;31601;48.042;12.240;2023-04-15T11:53:21;95212.63;;;11.21;62.06
12757;BME280;31601;48.042;12.240;2023-04-15T11:55:48;95213.53;;;11.08;62.33
12757;BME280;31601;48.042;12.240;2023-04-15T11:58:16;95218.41;;;11.05;62.76
12757;BME280;31601;48.042;12.240;2023-04-15T12:00:48;95222.66;;;10.99;63.64
12757;BME280;31601;48.042;12.240;2023-04-15T12:03:21;95232.09;;;10.68;64.32
12757;BME280;31601;48.042;12.240;2023-04-15T12:06:08;95231.22;;;10.81;64.02
12757;BME280;31601;48.042;12.240;2023-04-15T12:08:56;95227.72;;;11.01;63.28
12757;BME280;31601;48.042;12.240;2023-04-15T12:11:28;95225.81;;;11.15;63.36
12757;BME280;31601;48.042;12.240;2023-04-15T12:13:57;95234.56;;;11.34;62.96
12757;BME280;31601;48.042;12.240;2023-04-15T12:16:24;95234.66;;;11.20;62.65
12757;BME280;31601;48.042;12.240;2023-04-15T12:18:51;95235.47;;;11.21;62.61
12757;BME280;31601;48.042;12.240;2023-04-15T12:21:20;95235.31;;;11.09;62.84
12757;BME280;31601;48.042;12.240;2023-04-15T12:23:47;95232.47;;;11.17;62.94
12757;BME280;31601;48.042;12.240;2023-04-15T12:26:16;95229.09;;;11.35;62.97
12757;BME280;31601;48.042;12.240;2023-04-15T12:28:43;95228.66;;;11.38;62.85
12757;BME280;31601;48.042;12.240;2023-04-15T12:31:10;95238.44;;;11.56;62.57
12757;BME280;31601;48.042;12.240;2023-04-15T12:33:37;95236.59;;;11.32;63.43
12757;BME280;31601;48.042;12.240;2023-04-15T12:36:04;95244.22;;;11.40;63.18
12757;BME280;31601;48.042;12.240;2023-04-15T12:38:31;95240.41;;;11.36;63.17
12757;BME280;31601;48.042;12.240;2023-04-15T12:40:57;95244.31;;;11.26;63.40
12757;BME280;31601;48.042;12.240;2023-04-15T12:43:25;95248.97;;;11.24;63.48
12757;BME280;31601;48.042;12.240;2023-04-15T12:45:52;95251.78;;;11.29;63.53
12757;BME280;31601;48.042;12.240;2023-04-15T12:48:18;95260.41;;;11.05;64.57
12757;BME280;31601;48.042;12.240;2023-04-15T12:50:45;95264.63;;;11.06;64.61
12757;BME280;31601;48.042;12.240;2023-04-15T12:53:11;95265.03;;;11.09;64.79
12757;BME280;31601;48.042;12.240;2023-04-15T12:55:38;95265.13;;;11.21;64.73
12757;BME280;31601;48.042;12.240;2023-04-15T12:58:04;95266.91;;;11.27;64.57